Time;durP1;ratioP1;P1;durP2;ratioP2;P2;SDS_P1;SDS_P2;PMS_P1;PMS_P2;Temp;Humidity;BMP_temperature;BMP_pressure;BME280_temperature;BME280_humidity;BME280_pressure;Samples;Min_cycle;Max_cycle;Signal;HPM_P1;HPM_P2
2023/10/13 06:30:57;;;;;;;10.83;6.70;;;;;;;17.13;83.15;98007.00;5074754;28;20198;-75
2023/10/13 06:33:28;;;;;;;11.67;6.77;;;;;;;17.12;82.39;98002.72;5074565;28;20254;-75
2023/10/13 06:35:57;;;;;;;12.07;6.77;;;;;;;17.04;82.62;97997.84;5074316;28;20552;-75
2023/10/13 06:38:24;;;;;;;13.27;6.67;;;;;;;17.05;83.15;97999.44;5074030;28;20228;-75
2023/10/13 06:40:52;;;;;;;9.87;6.33;;;;;;;17.21;81.96;97985.03;5074532;28;20586;-75
2023/10/13 06:43:21;;;;;;;10.47;6.33;;;;;;;17.07;82.91;97991.94;5074506;28;20268;-75
2023/10/13 06:45:56;;;;;;;13.97;6.80;;;;;;;17.09;83.55;97995.16;5074614;28;20197;-75
2023/10/13 06:48:25;;;;;;;9.87;6.00;;;;;;;17.06;84.00;97984.94;5074656;28;20231;-75
2023/10/13 06:50:52;;;;;;;10.93;5.77;;;;;;;17.09;83.81;97986.28;5074273;28;20215;-75
2023/10/13 06:53:22;;;;;;;12.23;5.93;;;;;;;17.20;83.04;97987.97;5074204;28;20679;-75
2023/10/13 06:55:52;;;;;;;9.83;5.53;;;;;;;17.28;83.51;97992.84;5074572;28;20221;-75
2023/10/13 06:58:23;;;;;;;12.00;6.17;;;;;;;17.17;84.05;97989.31;5074559;28;20228;-75
2023/10/13 07:00:54;;;;;;;9.87;5.43;;;;;;;17.24;82.17;97986.38;5074533;28;20216;-75
2023/10/13 07:03:21;;;;;;;11.90;5.73;;;;;;;17.22;84.98;97986.63;5074576;28;20203;-75
2023/10/13 07:05:48;;;;;;;11.03;6.13;;;;;;;17.27;85.13;97983.13;5075149;28;20208;-75
2023/10/13 07:08:17;;;;;;;10.97;6.27;;;;;;;17.23;86.89;97985.56;5074717;28;20220;-75
2023/10/13 07:11:02;;;;;;;10.53;5.63;;;;;;;17.39;83.35;97986.41;5074509;28;20211;-75
2023/10/13 07:13:29;;;;;;;9.53;6.17;;;;;;;17.45;83.26;97983.53;5073340;28;20197;-75
2023/10/13 07:16:01;;;;;;;11.33;6.00;;;;;;;17.56;83.46;97979.00;5074204;28;20235;-75
2023/10/13 07:18:35;;;;;;;9.37;5.30;;;;;;;17.61;84.63;97973.63;5074551;28;20718;-75
2023/10/13 07:21:09;;;;;;;10.33;5.60;;;;;;;17.71;81.72;97977.16;5074459;28;20203;-75
2023/10/13 07:23:36;;;;;;;10.77;5.57;;;;;;;17.79;80.38;97986.56;5074212;28;20246;-75
2023/10/13 07:26:03;;;;;;;7.87;5.23;;;;;;;17.97;79.37;97986.84;5074531;28;20200;-75
2023/10/13 07:28:31;;;;;;;8.70;5.17;;;;;;;18.15;76.39;97977.47;5074229;28;20225;-75
2023/10/13 07:31:12;;;;;;;12.70;5.57;;;;;;;18.25;77.85;97983.66;5074733;28;20543;-75
2023/10/13 07:33:40;;;;;;;7.47;4.60;;;;;;;18.34;77.65;97975.88;5074407;28;20189;-75
2023/10/13 07:36:15;;;;;;;11.57;4.13;;;;;;;18.48;76.62;97988.53;5074301;28;20221;-75
2023/10/13 07:38:43;;;;;;;11.80;4.57;;;;;;;18.69;71.92;97973.94;5074207;28;20231;-73
2023/10/13 07:41:15;;;;;;;8.83;4.20;;;;;;;18.74;70.44;97981.22;5074203;28;20208;-74
2023/10/13 07:43:41;;;;;;;9.83;4.37;;;;;;;18.72;70.76;97984.16;5074283;28;20189;-73
2023/10/13 07:46:09;;;;;;;9.43;3.93;;;;;;;18.95;68.13;97975.50;5073874;28;20203;-73
2023/10/13 07:48:37;;;;;;;7.67;3.90;;;;;;;19.13;65.71;97974.06;5073428;28;20320;-73
2023/10/13 07:51:10;;;;;;;9.43;4.10;;;;;;;19.19;66.76;97979.16;5075149;28;20300;-74
2023/10/13 07:53:39;;;;;;;9.10;3.97;;;;;;;19.29;66.72;97972.97;5073849;28;20200;-74
2023/10/13 07:56:08;;;;;;;8.33;3.57;;;;;;;19.28;66.15;97982.16;5073433;28;20228;-73
2023/10/13 07:58:47;;;;;;;7.97;4.07;;;;;;;19.36;67.14;97974.28;5073503;28;20267;-73
2023/10/13 08:01:17;;;;;;;9.67;4.07;;;;;;;19.43;65.90;97976.69;5073244;28;20212;-73
2023/10/13 08:03:46;;;;;;;5.97;3.67;;;;;;;19.50;66.28;97966.41;5073421;28;20208;-73
2023/10/13 08:06:25;;;;;;;10.57;4.70;;;;;;;19.62;63.77;97961.47;5073530;28;20205;-73
2023/10/13 08:08:54;;;;;;;9.57;4.13;;;;;;;19.60;65.06;97956.34;5073415;28;20235;-73
2023/10/13 08:11:30;;;;;;;8.27;3.70;;;;;;;19.64;64.53;97956.63;5073512;28;20300;-73
2023/10/13 08:14:00;;;;;;;6.47;4.20;;;;;;;19.88;62.48;97954.03;5073057;28;20674;-73
2023/10/13 08:16:45;;;;;;;10.53;3.57;;;;;;;20.20;59.21;97951.66;5073210;28;20224;-73
2023/10/13 08:19:16;;;;;;;6.30;4.50;;;;;;;20.46;56.11;97963.84;5072096;28;20228;-73
2023/10/13 08:21:50;;;;;;;7.97;4.40;;;;;;;20.55;56.38;97960.25;5073268;28;20192;-73
2023/10/13 08:24:24;;;;;;;10.90;3.90;;;;;;;20.75;53.54;97964.66;5074245;28;20283;-73
2023/10/13 08:30:26;;;;;;;8.87;3.13;;;;;;;20.92;51.88;97944.22;5076778;28;20180;-73
2023/10/13 08:32:46;;;;;;;9.57;3.63;;;;;;;21.26;49.78;97944.88;5076938;28;20296;-73
2023/10/13 08:35:33;;;;;;;6.43;3.43;;;;;;;21.27;51.49;97935.69;5077651;28;20204;-73
2023/10/13 08:38:04;;;;;;;8.67;3.90;;;;;;;21.42;48.95;97940.91;5077056;28;20255;-73
2023/10/13 08:43:14;;;;;;;5.47;3.17;;;;;;;21.73;46.43;97920.47;5055725;28;20341;-73
2023/10/13 08:45:53;;;;;;;7.60;3.30;;;;;;;21.81;46.72;97925.22;5076777;28;20201;-73
2023/10/13 08:48:26;;;;;;;6.50;3.27;;;;;;;21.99;45.64;97926.31;5077206;28;20220;-73
2023/10/13 08:50:55;;;;;;;6.73;3.37;;;;;;;22.18;44.10;97918.94;5076319;28;20196;-75
2023/10/13 08:53:31;;;;;;;6.27;3.23;;;;;;;22.27;43.52;97928.00;5076305;28;20208;-73
2023/10/13 08:56:06;;;;;;;7.47;3.20;;;;;;;22.44;43.96;97914.72;5076325;28;20678;-73
2023/10/13 09:01:35;;;;;;;5.32;3.05;;;;;;;22.57;43.35;97916.66;5076446;28;20203;-74
2023/10/13 09:04:21;;;;;;;5.10;3.00;;;;;;;22.65;42.51;97918.69;5076670;28;20284;-74
2023/10/13 09:07:21;;;;;;;7.87;2.77;;;;;;;22.66;43.21;97915.66;5076771;28;20270;-74
2023/10/13 09:10:13;;;;;;;6.75;3.30;;;;;;;22.80;42.26;97915.69;5061903;28;20690;-75
2023/10/13 09:13:00;;;;;;;8.02;3.15;;;;;;;23.07;41.46;97904.84;5076242;28;20272;-75
2023/10/13 09:18:14;;;;;;;5.82;3.15;;;;;;;23.48;40.93;97911.03;5075219;28;20224;-75
2023/10/13 09:20:43;;;;;;;4.55;2.70;;;;;;;23.59;40.38;97907.81;5076094;28;20671;-75
2023/10/13 09:23:24;;;;;;;6.22;2.75;;;;;;;23.45;41.55;97915.19;5076603;28;20234;-75
2023/10/13 09:25:53;;;;;;;9.27;3.05;;;;;;;23.47;40.71;97915.66;5076204;28;20217;-75
2023/10/13 09:28:21;;;;;;;6.65;3.03;;;;;;;23.61;40.06;97910.22;5076093;28;20232;-75
2023/10/13 09:30:52;;;;;;;8.40;3.50;;;;;;;23.73;39.72;97914.00;5076370;28;20217;-75
2023/10/13 09:33:32;;;;;;;6.25;3.20;;;;;;;23.92;38.05;97913.88;5076408;28;20208;-74
2023/10/13 09:36:04;;;;;;;5.60;2.50;;;;;;;23.88;38.80;97910.13;5074944;28;20217;-74
2023/10/13 09:38:33;;;;;;;5.75;3.00;;;;;;;23.99;36.66;97917.75;5075788;28;20243;-74
2023/10/13 09:41:01;;;;;;;7.97;2.97;;;;;;;23.80;37.40;97911.66;5076139;28;20215;-74
2023/10/13 09:43:30;;;;;;;7.88;3.28;;;;;;;23.73;38.95;97897.69;5076039;28;20569;-74
2023/10/13 09:46:01;;;;;;;6.40;2.85;;;;;;;23.52;39.40;97891.13;5075640;28;20265;-74
2023/10/13 09:48:40;;;;;;;5.38;2.95;;;;;;;23.64;38.32;97894.13;5075952;28;20319;-74
2023/10/13 09:51:14;;;;;;;6.22;2.85;;;;;;;23.47;39.27;97883.09;5075941;28;20189;-74
2023/10/13 09:53:53;;;;;;;7.18;2.72;;;;;;;23.41;42.05;97883.50;5075507;28;20189;-74
2023/10/13 09:56:26;;;;;;;7.38;2.88;;;;;;;23.47;38.81;97882.31;5075885;28;20208;-74
2023/10/13 09:59:12;;;;;;;7.43;3.08;;;;;;;23.58;38.15;97887.22;5059159;28;20302;-74
2023/10/13 10:01:50;;;;;;;4.88;2.92;;;;;;;23.73;38.61;97875.97;5058380;28;20223;-74
2023/10/13 10:04:19;;;;;;;5.70;3.00;;;;;;;24.09;37.21;97868.63;5075625;28;20242;-74
2023/10/13 10:06:53;;;;;;;6.68;3.05;;;;;;;24.57;35.90;97877.69;5075112;28;20696;-75
2023/10/13 10:09:22;;;;;;;7.57;3.13;;;;;;;24.61;36.13;97875.94;5075384;28;20204;-75
2023/10/13 10:12:19;;;;;;;5.45;3.00;;;;;;;24.79;35.74;97880.34;5075150;28;20299;-75
2023/10/13 10:14:57;;;;;;;6.38;3.10;;;;;;;24.86;35.13;97871.72;5075639;28;20551;-75
2023/10/13 10:17:29;;;;;;;6.65;3.03;;;;;;;24.98;35.49;97870.03;5074903;28;20221;-75
2023/10/13 10:19:56;;;;;;;5.03;3.30;;;;;;;25.07;34.43;97870.88;5075427;28;20196;-75
2023/10/13 10:22:33;;;;;;;5.38;3.00;;;;;;;25.20;34.59;97863.69;5075098;28;20232;-74
2023/10/13 10:25:01;;;;;;;7.15;3.03;;;;;;;25.03;34.65;97877.22;5074402;28;20643;-74
2023/10/13 10:27:32;;;;;;;6.38;3.20;;;;;;;24.81;36.12;97866.44;5074790;28;20224;-74
2023/10/13 10:30:00;;;;;;;5.22;2.85;;;;;;;24.77;36.60;97862.75;5075444;28;20217;-74
2023/10/13 10:32:40;;;;;;;6.68;3.10;;;;;;;24.75;35.77;97854.09;5074780;28;20204;-74
2023/10/13 10:35:15;;;;;;;6.47;3.20;;;;;;;24.75;35.49;97852.22;5074429;28;20539;-74
2023/10/13 10:37:46;;;;;;;6.28;3.22;;;;;;;24.88;35.73;97851.25;5074539;28;20266;-74
2023/10/13 10:40:46;;;;;;;5.68;3.22;;;;;;;24.91;35.05;97858.81;5074418;28;20189;-74
2023/10/13 10:43:17;;;;;;;5.72;3.03;;;;;;;24.80;35.12;97846.63;5074238;28;20189;-74
2023/10/13 10:45:50;;;;;;;4.75;2.63;;;;;;;24.64;36.70;97837.28;5074770;28;20196;-74
2023/10/13 10:48:20;;;;;;;4.90;2.95;;;;;;;24.76;35.66;97840.22;5074209;28;20224;-74
2023/10/13 10:50:54;;;;;;;5.38;2.80;;;;;;;24.86;35.33;97822.78;5074320;28;20554;-74
2023/10/13 10:53:33;;;;;;;6.22;2.70;;;;;;;25.01;36.31;97828.59;5074363;28;20250;-74
2023/10/13 10:56:08;;;;;;;9.75;3.35;;;;;;;25.04;35.11;97829.88;5073365;28;20431;-74
2023/10/13 10:58:43;;;;;;;5.55;2.97;;;;;;;25.21;34.38;97816.28;5074193;28;20274;-74
2023/10/13 11:01:11;;;;;;;6.28;2.92;;;;;;;25.24;34.54;97819.16;5073523;28;20238;-74
2023/10/13 11:03:41;;;;;;;8.15;3.20;;;;;;;25.04;35.50;97824.41;5074298;28;20742;-74
2023/10/13 11:06:17;;;;;;;9.88;3.17;;;;;;;24.99;34.89;97821.84;5075754;28;20215;-74
2023/10/13 11:08:43;;;;;;;8.73;3.25;;;;;;;24.97;35.22;97811.28;5073610;28;20231;-74
2023/10/13 11:11:17;;;;;;;7.78;3.28;;;;;;;24.96;35.30;97806.97;5073520;28;20215;-74
2023/10/13 11:13:50;;;;;;;10.50;3.20;;;;;;;25.08;34.88;97800.91;5073884;28;20601;-74
2023/10/13 11:16:24;;;;;;;6.63;3.13;;;;;;;24.95;35.54;97799.13;5073665;28;20567;-74
2023/10/13 11:19:01;;;;;;;5.50;3.13;;;;;;;25.10;36.01;97791.31;5073326;28;20702;-74
2023/10/13 11:21:31;;;;;;;6.15;3.13;;;;;;;25.32;35.03;97787.66;5073819;28;20284;-74
2023/10/13 11:24:08;;;;;;;6.95;3.85;;;;;;;25.38;35.48;97786.41;5073997;28;20208;-74
2023/10/13 11:26:42;;;;;;;6.28;3.13;;;;;;;25.70;34.81;97783.19;5073617;28;20188;-74
2023/10/13 11:29:10;;;;;;;9.65;3.28;;;;;;;25.81;34.93;97787.16;5073873;28;20224;-74
2023/10/13 11:31:37;;;;;;;5.78;3.17;;;;;;;25.97;34.02;97780.91;5055790;28;20243;-74
2023/10/13 11:34:05;;;;;;;7.97;3.40;;;;;;;25.94;33.50;97778.84;5073765;28;20684;-74
2023/10/13 11:36:33;;;;;;;7.60;3.47;;;;;;;26.00;33.92;97777.53;5073769;28;20697;-74
2023/10/13 11:38:59;;;;;;;8.02;3.47;;;;;;;26.29;33.79;97779.53;5073279;28;20764;-74
2023/10/13 11:41:33;;;;;;;8.50;3.53;;;;;;;26.15;32.19;97778.94;5073614;28;20216;-74
2023/10/13 11:44:23;;;;;;;5.05;2.78;;;;;;;26.17;32.09;97768.50;5073428;28;20224;-75
2023/10/13 11:46:55;;;;;;;6.05;2.78;;;;;;;26.09;32.96;97769.31;5073221;28;20188;-74
2023/10/13 11:49:33;;;;;;;8.57;3.20;;;;;;;26.18;32.63;97767.38;5073643;28;20601;-74
2023/10/13 11:52:15;;;;;;;8.27;3.55;;;;;;;26.24;32.59;97772.31;5074286;28;20188;-74
2023/10/13 11:54:42;;;;;;;6.35;3.47;;;;;;;26.40;32.13;97764.41;5074013;28;20203;-75
2023/10/13 11:57:09;;;;;;;9.18;3.45;;;;;;;26.43;32.01;97766.50;5073242;28;20228;-74
2023/10/13 11:59:44;;;;;;;8.73;3.20;;;;;;;26.36;32.51;97761.53;5075231;28;20211;-74
2023/10/13 12:04:57;;;;;;;6.53;3.10;;;;;;;26.44;31.89;97755.25;5077336;28;20210;-74
2023/10/13 12:07:27;;;;;;;6.78;3.00;;;;;;;26.53;32.17;97741.56;5077449;28;20295;-74
2023/10/13 12:10:06;;;;;;;8.48;3.25;;;;;;;26.56;31.86;97738.19;5077245;28;20246;-74
2023/10/13 12:12:40;;;;;;;7.95;3.30;;;;;;;26.57;31.11;97740.63;5077091;28;20694;-74
2023/10/13 12:15:13;;;;;;;5.90;3.22;;;;;;;26.38;31.09;97739.41;5076908;28;20188;-74
2023/10/13 12:17:44;;;;;;;5.38;2.83;;;;;;;26.40;32.08;97734.41;5077070;28;20248;-74
2023/10/13 12:20:18;;;;;;;4.32;3.22;;;;;;;26.42;31.63;97732.97;5077525;28;20189;-74
2023/10/13 12:22:54;;;;;;;8.52;3.70;;;;;;;26.40;31.64;97724.31;5076738;28;20215;-74
2023/10/13 12:25:25;;;;;;;9.73;2.92;;;;;;;26.52;31.69;97729.06;5077101;28;20265;-75
2023/10/13 12:27:56;;;;;;;7.38;3.05;;;;;;;26.61;31.76;97722.50;5076797;28;20228;-74
2023/10/13 12:30:35;;;;;;;6.30;3.20;;;;;;;26.62;31.32;97717.81;5076970;28;20189;-75
2023/10/13 12:33:08;;;;;;;5.47;2.92;;;;;;;26.67;31.12;97718.44;5077920;28;20199;-74
2023/10/13 12:36:03;;;;;;;8.07;3.20;;;;;;;26.73;30.77;97713.59;5077847;28;20193;-75
2023/10/13 12:38:50;;;;;;;9.05;3.58;;;;;;;26.82;30.46;97711.59;5077031;28;20233;-75
2023/10/13 12:49:49;;;;;;;7.22;3.50;;;;;;;26.99;31.00;97687.72;5043949;28;20281;-74
2023/10/13 12:52:19;;;;;;;5.43;2.78;;;;;;;27.01;31.11;97682.69;5077122;28;20287;-75
2023/10/13 12:54:58;;;;;;;6.47;3.50;;;;;;;27.13;31.07;97675.72;5077671;28;20208;-74
2023/10/13 12:57:29;;;;;;;5.43;3.20;;;;;;;27.23;30.49;97678.88;5076577;28;20661;-74
2023/10/13 12:59:55;;;;;;;5.97;3.28;;;;;;;27.26;30.92;97677.41;5076934;28;20280;-74
2023/10/13 13:02:24;;;;;;;9.30;3.00;;;;;;;27.09;30.73;97670.16;5077046;28;20212;-74
2023/10/13 13:04:56;;;;;;;8.40;3.40;;;;;;;27.18;30.92;97668.13;5076545;28;20299;-74
2023/10/13 13:07:22;;;;;;;5.75;3.40;;;;;;;27.20;31.45;97665.88;5077244;28;20227;-74
2023/10/13 13:09:50;;;;;;;7.38;3.15;;;;;;;27.24;30.11;97655.91;5076812;28;20205;-74
2023/10/13 13:12:17;;;;;;;5.30;2.83;;;;;;;27.20;30.49;97656.88;5076545;28;20693;-74
2023/10/13 13:14:46;;;;;;;8.10;3.25;;;;;;;27.22;29.31;97652.69;5076779;28;20212;-74
2023/10/13 13:17:13;;;;;;;7.53;2.65;;;;;;;27.00;30.46;97637.47;5077121;28;20286;-74
2023/10/13 13:19:39;;;;;;;5.32;2.88;;;;;;;27.04;30.85;97643.03;5076726;28;20693;-74
2023/10/13 13:22:11;;;;;;;8.57;3.40;;;;;;;26.97;30.18;97642.78;5076400;28;20205;-74
2023/10/13 13:24:43;;;;;;;6.28;3.10;;;;;;;27.09;30.79;97640.91;5076516;28;20196;-74
2023/10/13 13:27:14;;;;;;;6.43;3.20;;;;;;;26.95;30.32;97645.03;5075696;28;20774;-74
2023/10/13 13:29:44;;;;;;;6.93;3.63;;;;;;;26.91;30.50;97636.72;5076574;28;20280;-74
2023/10/13 13:32:18;;;;;;;9.90;3.72;;;;;;;26.95;30.39;97624.03;5077051;28;20211;-74
2023/10/13 13:34:54;;;;;;;5.88;2.83;;;;;;;27.24;29.19;97622.34;5077468;28;20282;-74
2023/10/13 13:37:21;;;;;;;5.60;3.20;;;;;;;27.13;29.71;97625.47;5076021;28;20232;-74
2023/10/13 13:39:47;;;;;;;7.95;3.17;;;;;;;27.20;28.78;97619.50;5075893;28;20212;-74
2023/10/13 13:42:17;;;;;;;16.77;2.90;;;;;;;27.47;28.04;97618.88;5075988;28;20235;-74
2023/10/13 13:44:47;;;;;;;6.38;2.92;;;;;;;27.42;28.12;97604.66;5076509;28;20205;-74
2023/10/13 13:47:14;;;;;;;7.68;2.97;;;;;;;27.48;28.13;97600.56;5076259;28;20263;-74
2023/10/13 13:49:50;;;;;;;5.82;3.13;;;;;;;27.31;28.71;97604.28;5075486;28;20227;-74
2023/10/13 13:52:21;;;;;;;5.60;2.78;;;;;;;27.33;28.52;97604.75;5075521;28;20188;-74
2023/10/13 13:54:48;;;;;;;4.32;2.58;;;;;;;27.26;28.57;97596.28;5075359;28;20200;-74
2023/10/13 13:57:14;;;;;;;7.07;2.88;;;;;;;27.33;28.30;97591.09;5075432;28;20233;-73
2023/10/13 13:59:45;;;;;;;5.25;2.70;;;;;;;27.29;28.11;97587.44;5074736;28;20287;-74
2023/10/13 14:02:19;;;;;;;5.88;2.88;;;;;;;27.38;28.37;97579.97;5075071;28;20280;-74
2023/10/13 14:04:50;;;;;;;7.25;2.75;;;;;;;27.44;27.75;97575.88;5075244;28;20196;-74
2023/10/13 14:07:19;;;;;;;7.03;3.13;;;;;;;27.30;27.94;97569.94;5074347;28;20231;-74
2023/10/13 14:09:45;;;;;;;6.07;3.28;;;;;;;27.39;27.72;97570.63;5074959;28;20230;-74
2023/10/13 14:12:29;;;;;;;6.43;2.90;;;;;;;27.52;27.33;97574.16;5074778;28;20208;-74
2023/10/13 14:14:56;;;;;;;5.78;3.03;;;;;;;27.47;27.57;97575.19;5074527;28;20200;-74
2023/10/13 14:17:28;;;;;;;4.88;3.17;;;;;;;27.30;27.60;97564.47;5075217;28;20229;-74
2023/10/13 14:19:57;;;;;;;4.78;2.70;;;;;;;27.37;27.72;97570.19;5074302;28;20650;-74
2023/10/13 14:22:24;;;;;;;8.60;2.83;;;;;;;27.51;27.68;97565.19;5073768;28;20662;-74
2023/10/13 14:24:54;;;;;;;6.50;3.10;;;;;;;27.45;27.43;97561.06;5074205;28;20571;-74
2023/10/13 14:27:23;;;;;;;5.63;3.22;;;;;;;27.37;28.39;97558.44;5074444;28;20244;-74
2023/10/13 14:29:52;;;;;;;6.93;3.22;;;;;;;27.27;28.25;97558.91;5074572;28;20211;-73
2023/10/13 14:32:24;;;;;;;7.13;2.78;;;;;;;27.24;28.46;97554.09;5074541;28;20207;-74
2023/10/13 14:34:54;;;;;;;6.47;2.90;;;;;;;27.17;28.35;97558.16;5074576;28;20645;-74
2023/10/13 14:37:26;;;;;;;6.15;3.20;;;;;;;27.09;28.18;97559.03;5074209;28;20243;-74
2023/10/13 14:39:56;;;;;;;7.50;3.15;;;;;;;26.98;29.11;97554.34;5074371;28;20207;-74
2023/10/13 14:42:23;;;;;;;5.82;2.90;;;;;;;27.11;28.04;97539.59;5074000;28;20192;-74
2023/10/13 14:44:55;;;;;;;7.43;3.03;;;;;;;27.04;28.33;97539.34;5074009;28;20235;-74
2023/10/13 14:47:27;;;;;;;4.43;2.95;;;;;;;27.00;28.13;97543.91;5074027;28;20224;-74
2023/10/13 14:49:59;;;;;;;6.03;2.90;;;;;;;26.92;28.19;97542.06;5074236;28;20188;-74
2023/10/13 14:52:26;;;;;;;4.53;2.72;;;;;;;26.79;29.39;97543.16;5073947;28;20193;-74
2023/10/13 14:54:56;;;;;;;7.50;2.80;;;;;;;26.94;28.58;97537.06;5073686;28;20215;-74
2023/10/13 14:57:24;;;;;;;4.53;2.90;;;;;;;26.85;28.14;97536.34;5071167;28;20589;-74
2023/10/13 14:59:52;;;;;;;3.45;2.60;;;;;;;26.76;28.40;97535.63;5073222;28;20212;-74
2023/10/13 15:02:18;;;;;;;7.68;3.00;;;;;;;26.60;28.80;97534.66;5073415;28;20193;-74
2023/10/13 15:04:48;;;;;;;5.47;2.97;;;;;;;26.72;28.55;97531.97;5073964;28;20204;-74
2023/10/13 15:07:16;;;;;;;4.38;3.15;;;;;;;26.46;29.30;97529.44;5073457;28;20583;-74
2023/10/13 15:09:42;;;;;;;7.20;2.78;;;;;;;26.44;28.39;97525.47;5073588;28;20212;-74
2023/10/13 15:12:10;;;;;;;7.28;3.00;;;;;;;26.57;28.48;97524.41;5075043;28;20200;-74
2023/10/13 15:14:39;;;;;;;6.35;2.88;;;;;;;26.37;28.80;97517.03;5073674;28;20205;-74
2023/10/13 15:17:06;;;;;;;7.85;2.80;;;;;;;26.32;28.87;97518.03;5073335;28;20311;-74
2023/10/13 15:19:35;;;;;;;3.75;2.70;;;;;;;26.42;27.72;97523.06;5073069;28;20218;-74
2023/10/13 15:22:05;;;;;;;5.85;2.60;;;;;;;26.41;27.67;97516.03;5073313;28;20208;-74
2023/10/13 15:24:36;;;;;;;4.20;2.53;;;;;;;26.18;28.53;97513.94;5072861;28;20205;-75
2023/10/13 15:27:02;;;;;;;3.42;2.40;;;;;;;25.96;29.10;97509.63;5073443;28;20188;-75
2023/10/13 15:29:35;;;;;;;5.70;2.65;;;;;;;25.87;28.92;97503.41;5073332;28;20208;-74
2023/10/13 15:32:41;;;;;;;5.85;2.53;;;;;;;26.18;27.83;97506.59;5073265;28;20283;-75
2023/10/13 15:34:52;;;;;;;5.40;2.80;;;;;;;25.90;28.67;97505.47;5072214;28;20638;-75
2023/10/13 15:37:19;;;;;;;3.38;2.28;;;;;;;25.77;29.19;97500.25;5072960;28;20225;-74
2023/10/13 15:39:45;;;;;;;11.65;6.55;;;;;;;25.96;27.71;97504.19;5073114;28;20204;-74
2023/10/13 15:42:14;;;;;;;8.82;4.60;;;;;;;25.87;28.12;97502.63;5073091;28;20574;-75
2023/10/13 15:44:43;;;;;;;5.18;2.90;;;;;;;25.98;26.85;97504.66;5073235;28;20239;-75
2023/10/13 15:47:12;;;;;;;6.82;2.80;;;;;;;25.93;27.14;97499.41;5071970;28;20311;-74
2023/10/13 15:49:41;;;;;;;3.85;2.33;;;;;;;25.90;26.88;97499.22;5060085;28;20205;-74
2023/10/13 15:52:09;;;;;;;6.07;2.45;;;;;;;25.85;26.64;97496.69;5060159;28;20655;-74
2023/10/13 15:54:35;;;;;;;5.95;3.20;;;;;;;25.76;26.96;97496.75;5061534;28;20612;-74
2023/10/13 15:57:05;;;;;;;4.85;2.70;;;;;;;25.80;26.58;97497.69;5064444;28;20274;-75
2023/10/13 15:59:34;;;;;;;5.90;2.30;;;;;;;25.84;26.02;97501.38;5061551;28;20204;-75
2023/10/13 16:02:00;;;;;;;3.92;2.38;;;;;;;25.62;26.72;97485.31;5063846;28;20238;-75
2023/10/13 16:04:27;;;;;;;5.78;2.25;;;;;;;25.39;27.74;97492.16;5065410;28;20196;-74
2023/10/13 16:06:53;;;;;;;9.32;2.97;;;;;;;25.25;27.45;97485.31;5072696;28;20201;-74
2023/10/13 16:09:22;;;;;;;3.22;2.22;;;;;;;25.08;28.41;97477.19;5072990;28;20235;-75
2023/10/13 16:11:50;;;;;;;4.18;2.60;;;;;;;25.02;27.91;97478.50;5072743;28;20671;-75
2023/10/13 16:14:18;;;;;;;2.90;2.33;;;;;;;24.99;28.00;97477.25;5072456;28;20209;-75
2023/10/13 16:16:46;;;;;;;6.60;2.67;;;;;;;24.70;29.28;97477.16;5070894;28;20220;-75
2023/10/13 16:19:21;;;;;;;7.75;2.80;;;;;;;24.70;28.29;97466.28;5070592;28;20710;-75
2023/10/13 16:21:48;;;;;;;2.75;2.20;;;;;;;24.84;28.11;97469.63;5071467;28;20192;-75
2023/10/13 16:24:17;;;;;;;5.47;3.05;;;;;;;24.64;29.48;97467.56;5070997;28;20236;-75
2023/10/13 16:26:48;;;;;;;4.53;2.92;;;;;;;24.82;27.77;97455.53;5072334;28;20261;-75
2023/10/13 16:29:15;;;;;;;5.10;2.25;;;;;;;24.52;29.26;97461.97;5071666;28;20283;-75
2023/10/13 16:31:45;;;;;;;4.28;2.28;;;;;;;24.46;28.81;97463.25;5072955;28;20575;-75
2023/10/13 16:34:12;;;;;;;5.45;2.40;;;;;;;24.59;27.98;97461.47;5072919;28;20200;-74
2023/10/13 16:36:38;;;;;;;5.97;1.98;;;;;;;24.43;29.29;97465.81;5072879;28;20204;-74
2023/10/13 16:39:04;;;;;;;4.05;2.30;;;;;;;24.16;29.45;97474.31;5072700;28;20224;-74
2023/10/13 16:41:31;;;;;;;2.33;2.13;;;;;;;23.99;30.00;97460.72;5072376;28;20201;-74
2023/10/13 16:44:00;;;;;;;5.82;2.83;;;;;;;24.05;29.47;97462.97;5072640;28;20212;-74
2023/10/13 16:46:27;;;;;;;5.68;2.42;;;;;;;24.00;29.45;97463.13;5075530;28;20204;-74
2023/10/13 16:48:53;;;;;;;5.10;3.05;;;;;;;23.92;30.28;97472.06;5076107;28;20236;-74
2023/10/13 16:51:19;;;;;;;6.60;2.80;;;;;;;23.89;29.81;97463.72;5075931;28;20574;-74
2023/10/13 16:53:49;;;;;;;3.42;2.08;;;;;;;23.70;30.81;97458.59;5076090;28;20208;-74
2023/10/13 16:56:18;;;;;;;4.20;2.72;;;;;;;23.47;30.40;97461.75;5075930;28;20204;-74
2023/10/13 16:58:45;;;;;;;8.60;3.88;;;;;;;23.32;32.24;97464.88;5075872;28;20225;-74
2023/10/13 17:01:12;;;;;;;10.52;5.93;;;;;;;23.08;33.85;97461.72;5075904;28;20216;-74
2023/10/13 17:03:40;;;;;;;6.28;5.65;;;;;;;23.15;31.99;97460.16;5076070;28;20208;-75
2023/10/13 17:06:09;;;;;;;21.15;16.98;;;;;;;23.01;33.77;97462.19;5076147;28;20208;-75
2023/10/13 17:08:36;;;;;;;10.23;7.85;;;;;;;22.86;33.65;97469.91;5075825;28;20229;-75
2023/10/13 17:11:12;;;;;;;6.00;3.67;;;;;;;22.90;32.69;97471.72;5075691;28;20687;-75
2023/10/13 17:13:40;;;;;;;6.72;3.25;;;;;;;22.73;33.24;97471.63;5075617;28;20184;-75
2023/10/13 17:16:21;;;;;;;4.20;2.90;;;;;;;22.62;33.66;97467.56;5075750;28;20208;-75
2023/10/13 17:18:49;;;;;;;5.50;2.28;;;;;;;22.61;34.36;97467.88;5075698;28;20308;-76
2023/10/13 17:21:21;;;;;;;4.97;2.67;;;;;;;22.56;33.82;97473.44;5075714;28;20208;-76
2023/10/13 17:23:50;;;;;;;4.28;2.42;;;;;;;22.61;33.91;97463.25;5075516;28;20212;-76
2023/10/13 17:26:17;;;;;;;5.53;2.40;;;;;;;22.67;33.50;97463.94;5075689;28;20289;-76
2023/10/13 17:28:43;;;;;;;2.97;2.50;;;;;;;22.71;33.95;97473.03;5075570;28;20225;-76
2023/10/13 17:31:10;;;;;;;7.20;2.90;;;;;;;22.66;34.71;97465.81;5075506;28;20694;-76
2023/10/13 17:33:39;;;;;;;6.55;2.30;;;;;;;22.96;33.60;97458.81;5075481;28;20207;-76
2023/10/13 17:36:08;;;;;;;3.95;2.50;;;;;;;22.92;33.81;97452.44;5075672;28;20256;-75
2023/10/13 17:38:34;;;;;;;5.50;2.53;;;;;;;23.16;33.69;97459.03;5075437;28;20237;-75
2023/10/13 17:41:01;;;;;;;4.45;2.97;;;;;;;23.07;33.97;97452.78;5075490;28;20208;-75
2023/10/13 17:43:27;;;;;;;5.10;2.67;;;;;;;22.92;34.22;97450.50;5075473;28;20209;-75
2023/10/13 17:45:53;;;;;;;5.28;2.97;;;;;;;22.85;36.13;97454.78;5074944;28;20304;-75
2023/10/13 17:48:22;;;;;;;4.82;3.35;;;;;;;22.62;36.79;97456.75;5075003;28;20220;-75
2023/10/13 17:50:48;;;;;;;5.53;3.30;;;;;;;22.32;37.60;97457.47;5075155;28;20208;-75
2023/10/13 17:53:15;;;;;;;6.13;3.80;;;;;;;22.21;37.05;97458.00;5074789;28;20212;-76
2023/10/13 17:55:41;;;;;;;7.45;4.07;;;;;;;22.17;36.87;97457.03;5074870;28;20201;-76
2023/10/13 17:58:09;;;;;;;11.75;4.75;;;;;;;21.94;38.27;97455.41;5073880;28;20231;-76
2023/10/13 18:00:35;;;;;;;7.47;4.07;;;;;;;22.01;37.13;97442.22;5074879;28;20216;-74
2023/10/13 18:03:06;;;;;;;6.65;4.35;;;;;;;21.99;36.98;97444.47;5074334;28;20571;-73
2023/10/13 18:05:35;;;;;;;7.57;4.60;;;;;;;22.02;37.48;97441.94;5074944;28;20204;-73
2023/10/13 18:08:02;;;;;;;8.20;4.30;;;;;;;21.92;38.00;97446.78;5074401;28;20599;-73
2023/10/13 18:10:30;;;;;;;6.57;4.03;;;;;;;21.87;37.88;97441.47;5074813;28;20200;-73
2023/10/13 18:12:56;;;;;;;5.38;3.22;;;;;;;21.80;38.86;97446.53;5074498;28;20211;-73
2023/10/13 18:15:24;;;;;;;6.68;3.55;;;;;;;21.81;39.66;97438.13;5074577;28;20659;-75
2023/10/13 18:17:53;;;;;;;5.95;3.70;;;;;;;21.82;40.07;97437.00;5074580;28;20725;-74
2023/10/13 18:20:23;;;;;;;5.25;4.35;;;;;;;21.75;40.05;97441.25;5074716;28;20215;-74
2023/10/13 18:22:50;;;;;;;5.32;3.65;;;;;;;21.65;40.82;97438.69;5074804;28;20189;-74
2023/10/13 18:25:23;;;;;;;6.10;3.22;;;;;;;21.54;42.12;97438.16;5074537;28;20218;-74
2023/10/13 18:27:50;;;;;;;7.70;3.35;;;;;;;21.40;42.49;97437.38;5074398;28;20224;-74
2023/10/13 18:30:21;;;;;;;5.35;3.28;;;;;;;21.37;42.48;97435.25;5074036;28;20206;-74
2023/10/13 18:32:50;;;;;;;5.65;3.45;;;;;;;21.58;42.22;97430.22;5074359;28;20185;-74
2023/10/13 18:35:18;;;;;;;4.70;3.07;;;;;;;21.55;41.46;97428.09;5074173;28;20204;-74
2023/10/13 18:37:45;;;;;;;5.77;3.30;;;;;;;21.75;40.00;97422.28;5073654;28;20569;-74
2023/10/13 18:40:15;;;;;;;10.07;3.20;;;;;;;21.92;39.99;97423.22;5074198;28;20298;-74
2023/10/13 18:42:42;;;;;;;4.63;3.37;;;;;;;21.72;41.09;97422.91;5074325;28;20562;-74